sensor_id;sensor_type;location;lat;lon;timestamp;P1;durP1;ratioP1;P2;durP2;ratioP2
13291;SDS011;6714;53.056;8.690;2023-03-08T00:01:55;2.10;;;1.80;;
13291;SDS011;6714;53.056;8.690;2023-03-08T00:04:38;4.73;;;1.93;;
13291;SDS011;6714;53.056;8.690;2023-03-08T00:07:21;2.17;;;2.00;;
13291;SDS011;6714;53.056;8.690;2023-03-08T00:10:06;2.10;;;1.47;;
13291;SDS011;6714;53.056;8.690;2023-03-08T00:12:49;3.80;;;2.00;;
13291;SDS011;6714;53.056;8.690;2023-03-08T00:15:31;2.23;;;2.13;;
13291;SDS011;6714;53.056;8.690;2023-03-08T00:18:14;3.73;;;2.27;;
13291;SDS011;6714;53.056;8.690;2023-03-08T00:20:57;1.87;;;1.60;;
13291;SDS011;6714;53.056;8.690;2023-03-08T00:23:40;2.30;;;2.00;;
13291;SDS011;6714;53.056;8.690;2023-03-08T00:26:26;1.47;;;1.37;;
13291;SDS011;6714;53.056;8.690;2023-03-08T00:29:09;4.60;;;2.40;;
13291;SDS011;6714;53.056;8.690;2023-03-08T00:31:51;1.70;;;1.60;;
13291;SDS011;6714;53.056;8.690;2023-03-08T00:34:35;3.60;;;2.57;;
13291;SDS011;6714;53.056;8.690;2023-03-08T00:37:17;2.80;;;2.00;;
13291;SDS011;6714;53.056;8.690;2023-03-08T00:40:00;2.53;;;2.33;;
13291;SDS011;6714;53.056;8.690;2023-03-08T00:42:46;3.07;;;2.77;;
13291;SDS011;6714;53.056;8.690;2023-03-08T00:45:28;2.67;;;2.47;;
13291;SDS011;6714;53.056;8.690;2023-03-08T00:48:11;2.43;;;1.93;;
13291;SDS011;6714;53.056;8.690;2023-03-08T00:50:54;4.10;;;2.07;;
13291;SDS011;6714;53.056;8.690;2023-03-08T00:53:36;1.77;;;1.67;;
13291;SDS011;6714;53.056;8.690;2023-03-08T00:56:20;2.93;;;2.10;;
13291;SDS011;6714;53.056;8.690;2023-03-08T00:59:06;2.67;;;1.83;;
13291;SDS011;6714;53.056;8.690;2023-03-08T01:01:49;2.73;;;2.07;;
13291;SDS011;6714;53.056;8.690;2023-03-08T01:04:32;3.57;;;2.20;;
13291;SDS011;6714;53.056;8.690;2023-03-08T01:07:15;3.00;;;1.93;;
13291;SDS011;6714;53.056;8.690;2023-03-08T01:09:58;4.30;;;2.37;;
13291;SDS011;6714;53.056;8.690;2023-03-08T01:12:40;3.80;;;2.43;;
13291;SDS011;6714;53.056;8.690;2023-03-08T01:15:24;2.80;;;2.20;;
13291;SDS011;6714;53.056;8.690;2023-03-08T01:18:07;1.70;;;1.60;;
13291;SDS011;6714;53.056;8.690;2023-03-08T01:20:54;1.77;;;1.67;;
13291;SDS011;6714;53.056;8.690;2023-03-08T01:23:36;2.23;;;1.60;;
13291;SDS011;6714;53.056;8.690;2023-03-08T01:26:19;3.00;;;2.07;;
13291;SDS011;6714;53.056;8.690;2023-03-08T01:29:02;1.70;;;1.50;;
13291;SDS011;6714;53.056;8.690;2023-03-08T01:31:46;2.13;;;1.90;;
13291;SDS011;6714;53.056;8.690;2023-03-08T01:34:28;2.17;;;1.83;;
13291;SDS011;6714;53.056;8.690;2023-03-08T01:37:10;1.90;;;1.80;;
13291;SDS011;6714;53.056;8.690;2023-03-08T01:39:53;2.33;;;2.10;;
13291;SDS011;6714;53.056;8.690;2023-03-08T01:42:36;2.03;;;1.47;;
13291;SDS011;6714;53.056;8.690;2023-03-08T01:48:18;1.77;;;1.67;;
13291;SDS011;6714;53.056;8.690;2023-03-08T01:51:02;2.03;;;1.87;;
13291;SDS011;6714;53.056;8.690;2023-03-08T01:53:45;2.13;;;2.00;;
13291;SDS011;6714;53.056;8.690;2023-03-08T01:56:28;1.60;;;1.60;;
13291;SDS011;6714;53.056;8.690;2023-03-08T01:59:10;2.93;;;1.50;;
13291;SDS011;6714;53.056;8.690;2023-03-08T02:01:53;1.63;;;1.53;;
13291;SDS011;6714;53.056;8.690;2023-03-08T02:04:37;1.63;;;1.40;;
13291;SDS011;6714;53.056;8.690;2023-03-08T02:07:20;3.07;;;1.70;;
13291;SDS011;6714;53.056;8.690;2023-03-08T02:10:03;2.10;;;1.90;;
13291;SDS011;6714;53.056;8.690;2023-03-08T02:12:46;2.33;;;2.13;;
13291;SDS011;6714;53.056;8.690;2023-03-08T02:15:29;2.33;;;1.67;;
13291;SDS011;6714;53.056;8.690;2023-03-08T02:18:13;1.53;;;1.53;;
13291;SDS011;6714;53.056;8.690;2023-03-08T02:20:57;2.40;;;2.17;;
13291;SDS011;6714;53.056;8.690;2023-03-08T02:23:41;2.47;;;1.63;;
13291;SDS011;6714;53.056;8.690;2023-03-08T02:26:23;3.33;;;2.90;;
13291;SDS011;6714;53.056;8.690;2023-03-08T02:29:06;2.20;;;2.00;;
13291;SDS011;6714;53.056;8.690;2023-03-08T02:31:48;2.30;;;2.20;;
13291;SDS011;6714;53.056;8.690;2023-03-08T02:34:31;2.90;;;2.70;;
13291;SDS011;6714;53.056;8.690;2023-03-08T02:37:14;1.93;;;1.83;;
13291;SDS011;6714;53.056;8.690;2023-03-08T02:39:58;1.67;;;1.57;;
13291;SDS011;6714;53.056;8.690;2023-03-08T02:42:40;2.13;;;1.63;;
13291;SDS011;6714;53.056;8.690;2023-03-08T02:45:23;2.10;;;2.00;;
13291;SDS011;6714;53.056;8.690;2023-03-08T02:48:05;4.67;;;4.27;;
13291;SDS011;6714;53.056;8.690;2023-03-08T02:50:48;5.50;;;4.40;;
13291;SDS011;6714;53.056;8.690;2023-03-08T02:53:31;7.00;;;5.10;;
13291;SDS011;6714;53.056;8.690;2023-03-08T02:56:15;7.37;;;5.10;;
13291;SDS011;6714;53.056;8.690;2023-03-08T02:58:57;4.03;;;3.37;;
13291;SDS011;6714;53.056;8.690;2023-03-08T03:01:39;2.93;;;2.07;;
13291;SDS011;6714;53.056;8.690;2023-03-08T03:04:22;2.83;;;2.27;;
13291;SDS011;6714;53.056;8.690;2023-03-08T03:07:05;2.53;;;2.33;;
13291;SDS011;6714;53.056;8.690;2023-03-08T03:09:47;5.67;;;3.50;;
13291;SDS011;6714;53.056;8.690;2023-03-08T03:12:32;2.37;;;2.17;;
13291;SDS011;6714;53.056;8.690;2023-03-08T03:15:14;5.53;;;4.87;;
13291;SDS011;6714;53.056;8.690;2023-03-08T03:17:57;7.00;;;5.80;;
13291;SDS011;6714;53.056;8.690;2023-03-08T03:20:40;6.13;;;3.70;;
13291;SDS011;6714;53.056;8.690;2023-03-08T03:23:22;6.70;;;6.00;;
13291;SDS011;6714;53.056;8.690;2023-03-08T03:26:05;4.83;;;4.07;;
13291;SDS011;6714;53.056;8.690;2023-03-08T03:28:49;4.87;;;4.17;;
13291;SDS011;6714;53.056;8.690;2023-03-08T03:31:32;3.63;;;3.33;;
13291;SDS011;6714;53.056;8.690;2023-03-08T03:34:15;4.10;;;3.70;;
13291;SDS011;6714;53.056;8.690;2023-03-08T03:36:57;6.00;;;3.43;;
13291;SDS011;6714;53.056;8.690;2023-03-08T03:39:40;7.07;;;6.23;;
13291;SDS011;6714;53.056;8.690;2023-03-08T03:42:23;3.77;;;2.83;;
13291;SDS011;6714;53.056;8.690;2023-03-08T03:45:08;3.80;;;3.33;;
13291;SDS011;6714;53.056;8.690;2023-03-08T03:47:50;8.37;;;5.87;;
13291;SDS011;6714;53.056;8.690;2023-03-08T03:50:32;5.97;;;5.17;;
13291;SDS011;6714;53.056;8.690;2023-03-08T03:53:15;5.53;;;4.63;;
13291;SDS011;6714;53.056;8.690;2023-03-08T03:56:01;10.97;;;8.20;;
13291;SDS011;6714;53.056;8.690;2023-03-08T03:58:44;4.57;;;4.17;;
13291;SDS011;6714;53.056;8.690;2023-03-08T04:01:29;8.63;;;6.90;;
13291;SDS011;6714;53.056;8.690;2023-03-08T04:04:11;9.63;;;7.30;;
13291;SDS011;6714;53.056;8.690;2023-03-08T04:06:54;6.47;;;5.60;;
13291;SDS011;6714;53.056;8.690;2023-03-08T04:09:36;11.10;;;8.50;;
13291;SDS011;6714;53.056;8.690;2023-03-08T04:12:19;5.80;;;4.93;;
13291;SDS011;6714;53.056;8.690;2023-03-08T04:15:01;4.03;;;3.63;;
13291;SDS011;6714;53.056;8.690;2023-03-08T04:17:46;10.20;;;7.87;;
13291;SDS011;6714;53.056;8.690;2023-03-08T04:20:29;8.87;;;6.70;;
13291;SDS011;6714;53.056;8.690;2023-03-08T04:23:11;4.47;;;4.03;;
13291;SDS011;6714;53.056;8.690;2023-03-08T04:25:53;6.27;;;5.40;;
13291;SDS011;6714;53.056;8.690;2023-03-08T04:28:36;4.37;;;3.83;;
13291;SDS011;6714;53.056;8.690;2023-03-08T04:31:19;5.80;;;5.17;;
13291;SDS011;6714;53.056;8.690;2023-03-08T04:34:04;9.20;;;7.17;;
13291;SDS011;6714;53.056;8.690;2023-03-08T04:36:46;8.90;;;6.60;;
13291;SDS011;6714;53.056;8.690;2023-03-08T04:39:28;7.53;;;6.30;;
13291;SDS011;6714;53.056;8.690;2023-03-08T04:42:11;6.47;;;5.63;;
13291;SDS011;6714;53.056;8.690;2023-03-08T04:44:53;6.17;;;5.50;;
13291;SDS011;6714;53.056;8.690;2023-03-08T04:47:36;6.83;;;5.87;;
13291;SDS011;6714;53.056;8.690;2023-03-08T04:50:20;5.90;;;5.00;;
13291;SDS011;6714;53.056;8.690;2023-03-08T04:53:03;6.20;;;5.30;;
13291;SDS011;6714;53.056;8.690;2023-03-08T04:55:45;10.50;;;7.50;;
13291;SDS011;6714;53.056;8.690;2023-03-08T04:58:28;12.97;;;9.20;;
13291;SDS011;6714;53.056;8.690;2023-03-08T05:01:11;5.93;;;4.70;;
13291;SDS011;6714;53.056;8.690;2023-03-08T05:03:54;10.60;;;9.30;;
13291;SDS011;6714;53.056;8.690;2023-03-08T05:06:38;13.13;;;10.10;;
13291;SDS011;6714;53.056;8.690;2023-03-08T05:09:20;11.50;;;8.40;;
13291;SDS011;6714;53.056;8.690;2023-03-08T05:12:03;10.50;;;7.80;;
13291;SDS011;6714;53.056;8.690;2023-03-08T05:14:45;8.93;;;7.87;;
13291;SDS011;6714;53.056;8.690;2023-03-08T05:17:28;10.80;;;8.57;;
13291;SDS011;6714;53.056;8.690;2023-03-08T05:20:11;10.47;;;7.97;;
13291;SDS011;6714;53.056;8.690;2023-03-08T05:22:55;8.37;;;7.47;;
13291;SDS011;6714;53.056;8.690;2023-03-08T05:25:40;10.00;;;7.43;;
13291;SDS011;6714;53.056;8.690;2023-03-08T05:28:23;6.07;;;5.37;;
13291;SDS011;6714;53.056;8.690;2023-03-08T05:31:06;7.30;;;6.47;;
13291;SDS011;6714;53.056;8.690;2023-03-08T05:33:50;11.87;;;9.43;;
13291;SDS011;6714;53.056;8.690;2023-03-08T05:36:32;13.07;;;9.53;;
13291;SDS011;6714;53.056;8.690;2023-03-08T05:39:16;7.77;;;6.37;;
13291;SDS011;6714;53.056;8.690;2023-03-08T05:41:59;5.77;;;4.97;;
13291;SDS011;6714;53.056;8.690;2023-03-08T05:44:41;9.50;;;7.03;;
13291;SDS011;6714;53.056;8.690;2023-03-08T05:47:24;9.73;;;6.77;;
13291;SDS011;6714;53.056;8.690;2023-03-08T05:50:08;11.63;;;9.07;;
13291;SDS011;6714;53.056;8.690;2023-03-08T05:52:51;10.57;;;7.83;;
13291;SDS011;6714;53.056;8.690;2023-03-08T05:55:35;11.73;;;8.30;;
13291;SDS011;6714;53.056;8.690;2023-03-08T05:58:17;10.57;;;8.30;;
13291;SDS011;6714;53.056;8.690;2023-03-08T06:01:06;12.37;;;9.97;;
13291;SDS011;6714;53.056;8.690;2023-03-08T06:03:49;10.93;;;8.77;;
13291;SDS011;6714;53.056;8.690;2023-03-08T06:06:32;12.50;;;8.90;;
13291;SDS011;6714;53.056;8.690;2023-03-08T06:09:14;13.97;;;9.97;;
13291;SDS011;6714;53.056;8.690;2023-03-08T06:12:02;15.60;;;10.10;;
13291;SDS011;6714;53.056;8.690;2023-03-08T06:14:45;11.33;;;9.10;;
13291;SDS011;6714;53.056;8.690;2023-03-08T06:17:27;11.53;;;9.27;;
13291;SDS011;6714;53.056;8.690;2023-03-08T06:20:10;12.17;;;8.77;;
13291;SDS011;6714;53.056;8.690;2023-03-08T06:22:55;10.03;;;7.67;;
13291;SDS011;6714;53.056;8.690;2023-03-08T06:25:38;12.77;;;8.77;;
13291;SDS011;6714;53.056;8.690;2023-03-08T06:28:22;12.57;;;8.67;;
13291;SDS011;6714;53.056;8.690;2023-03-08T06:31:06;9.00;;;7.37;;
13291;SDS011;6714;53.056;8.690;2023-03-08T06:33:50;9.43;;;6.87;;
13291;SDS011;6714;53.056;8.690;2023-03-08T06:36:32;15.20;;;10.73;;
13291;SDS011;6714;53.056;8.690;2023-03-08T06:39:15;6.33;;;5.53;;
13291;SDS011;6714;53.056;8.690;2023-03-08T06:41:57;8.20;;;6.77;;
13291;SDS011;6714;53.056;8.690;2023-03-08T06:44:43;10.13;;;7.67;;
13291;SDS011;6714;53.056;8.690;2023-03-08T06:47:25;10.67;;;7.60;;
13291;SDS011;6714;53.056;8.690;2023-03-08T06:50:10;14.47;;;10.77;;
13291;SDS011;6714;53.056;8.690;2023-03-08T06:52:54;9.53;;;7.40;;
13291;SDS011;6714;53.056;8.690;2023-03-08T06:55:37;7.27;;;6.20;;
13291;SDS011;6714;53.056;8.690;2023-03-08T06:58:20;15.27;;;11.43;;
13291;SDS011;6714;53.056;8.690;2023-03-08T07:01:04;9.30;;;6.47;;
13291;SDS011;6714;53.056;8.690;2023-03-08T07:03:48;10.57;;;7.67;;
13291;SDS011;6714;53.056;8.690;2023-03-08T07:06:32;9.60;;;7.83;;
13291;SDS011;6714;53.056;8.690;2023-03-08T07:09:15;7.93;;;5.90;;
13291;SDS011;6714;53.056;8.690;2023-03-08T07:11:57;6.60;;;5.37;;
13291;SDS011;6714;53.056;8.690;2023-03-08T07:14:40;9.03;;;7.67;;
13291;SDS011;6714;53.056;8.690;2023-03-08T07:17:25;10.27;;;8.07;;
13291;SDS011;6714;53.056;8.690;2023-03-08T07:20:07;15.60;;;9.87;;
13291;SDS011;6714;53.056;8.690;2023-03-08T07:22:50;10.53;;;8.33;;
13291;SDS011;6714;53.056;8.690;2023-03-08T07:25:32;14.80;;;11.20;;
13291;SDS011;6714;53.056;8.690;2023-03-08T07:28:15;10.57;;;8.37;;
13291;SDS011;6714;53.056;8.690;2023-03-08T07:30:58;13.73;;;9.53;;
13291;SDS011;6714;53.056;8.690;2023-03-08T07:33:41;6.67;;;5.63;;
13291;SDS011;6714;53.056;8.690;2023-03-08T07:36:24;6.47;;;5.63;;
13291;SDS011;6714;53.056;8.690;2023-03-08T07:39:06;8.70;;;6.00;;
13291;SDS011;6714;53.056;8.690;2023-03-08T07:41:49;7.23;;;6.03;;
13291;SDS011;6714;53.056;8.690;2023-03-08T07:44:31;10.77;;;8.00;;
13291;SDS011;6714;53.056;8.690;2023-03-08T07:47:14;13.37;;;10.23;;
13291;SDS011;6714;53.056;8.690;2023-03-08T07:49:57;14.97;;;11.53;;
13291;SDS011;6714;53.056;8.690;2023-03-08T07:52:40;5.73;;;5.13;;
13291;SDS011;6714;53.056;8.690;2023-03-08T07:55:22;7.60;;;6.00;;
13291;SDS011;6714;53.056;8.690;2023-03-08T07:58:06;12.17;;;9.90;;
13291;SDS011;6714;53.056;8.690;2023-03-08T08:00:48;12.47;;;9.50;;
13291;SDS011;6714;53.056;8.690;2023-03-08T08:03:31;11.57;;;8.93;;
13291;SDS011;6714;53.056;8.690;2023-03-08T08:06:15;10.67;;;8.30;;
13291;SDS011;6714;53.056;8.690;2023-03-08T08:08:57;13.10;;;9.40;;
13291;SDS011;6714;53.056;8.690;2023-03-08T08:11:40;13.40;;;10.47;;
13291;SDS011;6714;53.056;8.690;2023-03-08T08:14:32;8.33;;;6.70;;
13291;SDS011;6714;53.056;8.690;2023-03-08T08:17:14;7.83;;;6.97;;
13291;SDS011;6714;53.056;8.690;2023-03-08T08:19:56;8.33;;;6.53;;
13291;SDS011;6714;53.056;8.690;2023-03-08T08:22:41;9.30;;;7.03;;
13291;SDS011;6714;53.056;8.690;2023-03-08T08:25:23;11.67;;;9.40;;
13291;SDS011;6714;53.056;8.690;2023-03-08T08:28:06;10.80;;;7.40;;
13291;SDS011;6714;53.056;8.690;2023-03-08T08:30:54;7.13;;;5.53;;
13291;SDS011;6714;53.056;8.690;2023-03-08T08:33:36;11.73;;;8.30;;
13291;SDS011;6714;53.056;8.690;2023-03-08T08:36:19;16.07;;;11.67;;
13291;SDS011;6714;53.056;8.690;2023-03-08T08:39:03;17.37;;;11.30;;
13291;SDS011;6714;53.056;8.690;2023-03-08T08:41:47;16.80;;;11.90;;
13291;SDS011;6714;53.056;8.690;2023-03-08T08:44:29;11.47;;;8.40;;
13291;SDS011;6714;53.056;8.690;2023-03-08T08:47:12;15.50;;;11.43;;
13291;SDS011;6714;53.056;8.690;2023-03-08T08:49:54;8.57;;;6.10;;
13291;SDS011;6714;53.056;8.690;2023-03-08T08:52:37;8.07;;;5.97;;
13291;SDS011;6714;53.056;8.690;2023-03-08T08:55:21;9.87;;;7.80;;
13291;SDS011;6714;53.056;8.690;2023-03-08T08:58:03;10.70;;;7.97;;
13291;SDS011;6714;53.056;8.690;2023-03-08T09:00:45;15.97;;;10.97;;
13291;SDS011;6714;53.056;8.690;2023-03-08T09:03:28;13.53;;;10.53;;
13291;SDS011;6714;53.056;8.690;2023-03-08T09:06:10;7.83;;;6.27;;
13291;SDS011;6714;53.056;8.690;2023-03-08T09:08:54;8.60;;;6.90;;
13291;SDS011;6714;53.056;8.690;2023-03-08T09:11:38;19.43;;;12.73;;
13291;SDS011;6714;53.056;8.690;2023-03-08T09:14:21;15.73;;;11.60;;
13291;SDS011;6714;53.056;8.690;2023-03-08T09:17:04;15.83;;;11.33;;
13291;SDS011;6714;53.056;8.690;2023-03-08T09:19:47;17.87;;;11.70;;
13291;SDS011;6714;53.056;8.690;2023-03-08T09:22:30;16.80;;;12.43;;
13291;SDS011;6714;53.056;8.690;2023-03-08T09:25:13;11.13;;;8.93;;
13291;SDS011;6714;53.056;8.690;2023-03-08T09:27:58;16.60;;;9.83;;
13291;SDS011;6714;53.056;8.690;2023-03-08T09:30:40;13.13;;;10.37;;
13291;SDS011;6714;53.056;8.690;2023-03-08T09:33:23;11.10;;;8.93;;
13291;SDS011;6714;53.056;8.690;2023-03-08T09:36:05;10.87;;;7.57;;
13291;SDS011;6714;53.056;8.690;2023-03-08T09:38:48;11.03;;;8.13;;
13291;SDS011;6714;53.056;8.690;2023-03-08T09:47:31;12.27;;;8.40;;
13291;SDS011;6714;53.056;8.690;2023-03-08T09:53:23;14.37;;;9.30;;
13291;SDS011;6714;53.056;8.690;2023-03-08T09:56:10;11.20;;;8.97;;
13291;SDS011;6714;53.056;8.690;2023-03-08T09:58:57;10.73;;;8.50;;
13291;SDS011;6714;53.056;8.690;2023-03-08T10:01:49;11.50;;;9.40;;
13291;SDS011;6714;53.056;8.690;2023-03-08T10:04:37;14.83;;;11.27;;
13291;SDS011;6714;53.056;8.690;2023-03-08T10:07:25;7.43;;;6.13;;
13291;SDS011;6714;53.056;8.690;2023-03-08T10:10:12;9.87;;;7.80;;
13291;SDS011;6714;53.056;8.690;2023-03-08T10:13:12;8.97;;;6.83;;
13291;SDS011;6714;53.056;8.690;2023-03-08T10:16:04;10.00;;;8.27;;
13291;SDS011;6714;53.056;8.690;2023-03-08T10:18:49;11.47;;;8.77;;
13291;SDS011;6714;53.056;8.690;2023-03-08T10:21:35;15.07;;;11.13;;
13291;SDS011;6714;53.056;8.690;2023-03-08T10:24:20;10.23;;;7.83;;
13291;SDS011;6714;53.056;8.690;2023-03-08T10:27:09;9.57;;;8.07;;
13291;SDS011;6714;53.056;8.690;2023-03-08T10:29:56;15.00;;;11.57;;
13291;SDS011;6714;53.056;8.690;2023-03-08T10:32:41;12.30;;;9.23;;
13291;SDS011;6714;53.056;8.690;2023-03-08T10:35:30;11.27;;;8.30;;
13291;SDS011;6714;53.056;8.690;2023-03-08T10:38:15;12.17;;;9.83;;
13291;SDS011;6714;53.056;8.690;2023-03-08T10:40:58;9.10;;;7.77;;
13291;SDS011;6714;53.056;8.690;2023-03-08T10:43:44;8.87;;;7.30;;
13291;SDS011;6714;53.056;8.690;2023-03-08T10:46:27;12.00;;;8.20;;
13291;SDS011;6714;53.056;8.690;2023-03-08T10:49:14;8.00;;;6.73;;
13291;SDS011;6714;53.056;8.690;2023-03-08T10:51:57;7.70;;;6.53;;
13291;SDS011;6714;53.056;8.690;2023-03-08T10:54:41;9.00;;;7.57;;
13291;SDS011;6714;53.056;8.690;2023-03-08T10:57:23;7.97;;;7.10;;
13291;SDS011;6714;53.056;8.690;2023-03-08T11:00:15;9.47;;;7.57;;
13291;SDS011;6714;53.056;8.690;2023-03-08T11:03:13;7.47;;;6.30;;
13291;SDS011;6714;53.056;8.690;2023-03-08T11:05:57;10.83;;;7.93;;
13291;SDS011;6714;53.056;8.690;2023-03-08T11:08:50;8.13;;;6.33;;
13291;SDS011;6714;53.056;8.690;2023-03-08T11:11:40;11.90;;;8.63;;
13291;SDS011;6714;53.056;8.690;2023-03-08T11:14:23;9.17;;;7.47;;
13291;SDS011;6714;53.056;8.690;2023-03-08T11:17:11;8.63;;;7.53;;
13291;SDS011;6714;53.056;8.690;2023-03-08T11:19:58;9.93;;;8.07;;
13291;SDS011;6714;53.056;8.690;2023-03-08T11:22:49;8.33;;;7.07;;
13291;SDS011;6714;53.056;8.690;2023-03-08T11:25:35;8.57;;;7.30;;
13291;SDS011;6714;53.056;8.690;2023-03-08T11:28:27;8.50;;;7.60;;
13291;SDS011;6714;53.056;8.690;2023-03-08T11:31:17;8.00;;;6.50;;
13291;SDS011;6714;53.056;8.690;2023-03-08T11:34:07;10.40;;;7.30;;
13291;SDS011;6714;53.056;8.690;2023-03-08T11:36:57;8.27;;;6.93;;
13291;SDS011;6714;53.056;8.690;2023-03-08T11:39:43;8.33;;;7.23;;
13291;SDS011;6714;53.056;8.690;2023-03-08T11:42:28;9.17;;;7.00;;
13291;SDS011;6714;53.056;8.690;2023-03-08T11:45:31;10.87;;;6.67;;
13291;SDS011;6714;53.056;8.690;2023-03-08T11:48:32;7.20;;;5.77;;
13291;SDS011;6714;53.056;8.690;2023-03-08T11:51:19;8.20;;;6.27;;
13291;SDS011;6714;53.056;8.690;2023-03-08T11:54:07;8.37;;;7.17;;
13291;SDS011;6714;53.056;8.690;2023-03-08T11:56:52;5.90;;;5.30;;
13291;SDS011;6714;53.056;8.690;2023-03-08T11:59:36;7.13;;;5.30;;
13291;SDS011;6714;53.056;8.690;2023-03-08T12:02:22;7.07;;;6.07;;
13291;SDS011;6714;53.056;8.690;2023-03-08T12:05:06;5.50;;;4.93;;
13291;SDS011;6714;53.056;8.690;2023-03-08T12:07:52;8.77;;;6.20;;
13291;SDS011;6714;53.056;8.690;2023-03-08T12:10:39;8.60;;;6.90;;
13291;SDS011;6714;53.056;8.690;2023-03-08T12:13:25;5.23;;;4.60;;
13291;SDS011;6714;53.056;8.690;2023-03-08T12:16:12;6.33;;;5.67;;
13291;SDS011;6714;53.056;8.690;2023-03-08T12:18:59;7.93;;;6.60;;
13291;SDS011;6714;53.056;8.690;2023-03-08T12:21:47;9.37;;;7.30;;
13291;SDS011;6714;53.056;8.690;2023-03-08T12:24:35;7.27;;;5.87;;
13291;SDS011;6714;53.056;8.690;2023-03-08T12:27:22;6.00;;;5.40;;
13291;SDS011;6714;53.056;8.690;2023-03-08T12:30:12;8.20;;;7.27;;
13291;SDS011;6714;53.056;8.690;2023-03-08T12:32:54;8.23;;;6.77;;
13291;SDS011;6714;53.056;8.690;2023-03-08T12:35:50;6.83;;;6.13;;
13291;SDS011;6714;53.056;8.690;2023-03-08T12:38:34;6.70;;;6.00;;
13291;SDS011;6714;53.056;8.690;2023-03-08T12:41:21;6.80;;;5.77;;
13291;SDS011;6714;53.056;8.690;2023-03-08T12:44:05;6.53;;;5.30;;
13291;SDS011;6714;53.056;8.690;2023-03-08T12:46:48;6.40;;;5.00;;
13291;SDS011;6714;53.056;8.690;2023-03-08T12:49:32;7.83;;;5.47;;
13291;SDS011;6714;53.056;8.690;2023-03-08T12:55:18;5.47;;;4.90;;
13291;SDS011;6714;53.056;8.690;2023-03-08T12:58:02;4.27;;;3.87;;
13291;SDS011;6714;53.056;8.690;2023-03-08T13:00:45;5.13;;;4.63;;
13291;SDS011;6714;53.056;8.690;2023-03-08T13:03:38;4.93;;;4.43;;
13291;SDS011;6714;53.056;8.690;2023-03-08T13:09:34;5.87;;;5.10;;
13291;SDS011;6714;53.056;8.690;2023-03-08T13:12:24;5.27;;;4.13;;
13291;SDS011;6714;53.056;8.690;2023-03-08T13:15:19;4.67;;;4.23;;
13291;SDS011;6714;53.056;8.690;2023-03-08T13:18:10;5.33;;;4.60;;
13291;SDS011;6714;53.056;8.690;2023-03-08T13:20:57;5.27;;;3.60;;
13291;SDS011;6714;53.056;8.690;2023-03-08T13:23:47;3.93;;;3.60;;
13291;SDS011;6714;53.056;8.690;2023-03-08T13:26:36;3.60;;;3.30;;
13291;SDS011;6714;53.056;8.690;2023-03-08T13:29:28;4.53;;;3.63;;
13291;SDS011;6714;53.056;8.690;2023-03-08T13:32:12;5.23;;;3.60;;
13291;SDS011;6714;53.056;8.690;2023-03-08T13:35:00;5.23;;;4.53;;
13291;SDS011;6714;53.056;8.690;2023-03-08T13:37:42;3.80;;;3.50;;
13291;SDS011;6714;53.056;8.690;2023-03-08T13:40:32;3.70;;;3.40;;
13291;SDS011;6714;53.056;8.690;2023-03-08T13:43:14;3.87;;;3.53;;
13291;SDS011;6714;53.056;8.690;2023-03-08T13:45:59;4.40;;;4.00;;
13291;SDS011;6714;53.056;8.690;2023-03-08T13:48:43;5.37;;;4.87;;
13291;SDS011;6714;53.056;8.690;2023-03-08T13:51:26;4.00;;;3.70;;
13291;SDS011;6714;53.056;8.690;2023-03-08T13:54:11;5.60;;;5.00;;
13291;SDS011;6714;53.056;8.690;2023-03-08T13:56:55;7.53;;;5.93;;
13291;SDS011;6714;53.056;8.690;2023-03-08T13:59:45;5.03;;;4.63;;
13291;SDS011;6714;53.056;8.690;2023-03-08T14:02:31;5.07;;;4.57;;
13291;SDS011;6714;53.056;8.690;2023-03-08T14:05:15;5.33;;;4.80;;
13291;SDS011;6714;53.056;8.690;2023-03-08T14:07:58;4.77;;;3.77;;
13291;SDS011;6714;53.056;8.690;2023-03-08T14:10:44;4.17;;;3.87;;
13291;SDS011;6714;53.056;8.690;2023-03-08T14:13:27;5.60;;;5.10;;
13291;SDS011;6714;53.056;8.690;2023-03-08T14:16:21;5.73;;;5.23;;
13291;SDS011;6714;53.056;8.690;2023-03-08T14:19:10;5.07;;;4.47;;
13291;SDS011;6714;53.056;8.690;2023-03-08T14:21:53;5.97;;;5.37;;
13291;SDS011;6714;53.056;8.690;2023-03-08T14:24:36;4.80;;;4.30;;
13291;SDS011;6714;53.056;8.690;2023-03-08T14:30:20;5.27;;;3.50;;
13291;SDS011;6714;53.056;8.690;2023-03-08T14:33:03;4.37;;;3.97;;
13291;SDS011;6714;53.056;8.690;2023-03-08T14:35:52;4.47;;;4.07;;
13291;SDS011;6714;53.056;8.690;2023-03-08T14:38:36;4.30;;;3.90;;
13291;SDS011;6714;53.056;8.690;2023-03-08T14:41:27;4.40;;;4.00;;
13291;SDS011;6714;53.056;8.690;2023-03-08T14:44:13;3.63;;;3.33;;
13291;SDS011;6714;53.056;8.690;2023-03-08T14:47:06;4.10;;;3.70;;
13291;SDS011;6714;53.056;8.690;2023-03-08T14:49:55;4.30;;;3.90;;
13291;SDS011;6714;53.056;8.690;2023-03-08T14:52:46;3.97;;;3.60;;
13291;SDS011;6714;53.056;8.690;2023-03-08T14:55:29;4.20;;;3.80;;
13291;SDS011;6714;53.056;8.690;2023-03-08T14:58:12;3.80;;;3.50;;
13291;SDS011;6714;53.056;8.690;2023-03-08T15:00:56;4.00;;;3.60;;
13291;SDS011;6714;53.056;8.690;2023-03-08T15:03:40;4.17;;;3.80;;
13291;SDS011;6714;53.056;8.690;2023-03-08T15:06:24;4.80;;;3.73;;
13291;SDS011;6714;53.056;8.690;2023-03-08T15:09:09;3.43;;;3.13;;
13291;SDS011;6714;53.056;8.690;2023-03-08T15:11:51;3.40;;;3.10;;
13291;SDS011;6714;53.056;8.690;2023-03-08T15:14:37;3.43;;;3.13;;
13291;SDS011;6714;53.056;8.690;2023-03-08T15:17:20;3.07;;;2.83;;
13291;SDS011;6714;53.056;8.690;2023-03-08T15:20:03;3.70;;;3.40;;
13291;SDS011;6714;53.056;8.690;2023-03-08T15:22:47;3.67;;;3.37;;
13291;SDS011;6714;53.056;8.690;2023-03-08T15:25:32;3.40;;;3.10;;
13291;SDS011;6714;53.056;8.690;2023-03-08T15:28:15;2.93;;;2.73;;
13291;SDS011;6714;53.056;8.690;2023-03-08T15:30:58;3.60;;;3.30;;
13291;SDS011;6714;53.056;8.690;2023-03-08T15:33:40;3.47;;;3.17;;
13291;SDS011;6714;53.056;8.690;2023-03-08T15:36:23;3.80;;;3.50;;
13291;SDS011;6714;53.056;8.690;2023-03-08T15:39:05;3.13;;;2.93;;
13291;SDS011;6714;53.056;8.690;2023-03-08T15:41:49;4.57;;;3.60;;
13291;SDS011;6714;53.056;8.690;2023-03-08T15:44:32;3.70;;;3.27;;
13291;SDS011;6714;53.056;8.690;2023-03-08T15:47:14;3.10;;;2.80;;
13291;SDS011;6714;53.056;8.690;2023-03-08T15:49:57;3.37;;;3.10;;
13291;SDS011;6714;53.056;8.690;2023-03-08T15:52:40;2.90;;;2.70;;
13291;SDS011;6714;53.056;8.690;2023-03-08T15:55:24;3.20;;;2.90;;
13291;SDS011;6714;53.056;8.690;2023-03-08T15:58:08;3.63;;;3.30;;
13291;SDS011;6714;53.056;8.690;2023-03-08T16:00:50;3.00;;;2.73;;
13291;SDS011;6714;53.056;8.690;2023-03-08T16:03:33;4.53;;;3.20;;
13291;SDS011;6714;53.056;8.690;2023-03-08T16:06:15;3.63;;;2.90;;
13291;SDS011;6714;53.056;8.690;2023-03-08T16:08:58;2.70;;;2.50;;
13291;SDS011;6714;53.056;8.690;2023-03-08T16:11:40;3.40;;;3.03;;
13291;SDS011;6714;53.056;8.690;2023-03-08T16:14:24;3.90;;;3.10;;
13291;SDS011;6714;53.056;8.690;2023-03-08T16:17:07;4.70;;;4.20;;
13291;SDS011;6714;53.056;8.690;2023-03-08T16:19:49;4.07;;;3.67;;
13291;SDS011;6714;53.056;8.690;2023-03-08T16:22:32;4.13;;;3.23;;
13291;SDS011;6714;53.056;8.690;2023-03-08T16:25:14;3.23;;;2.93;;
13291;SDS011;6714;53.056;8.690;2023-03-08T16:27:57;4.80;;;3.33;;
13291;SDS011;6714;53.056;8.690;2023-03-08T16:30:41;3.03;;;2.73;;
13291;SDS011;6714;53.056;8.690;2023-03-08T16:33:24;5.40;;;3.00;;
13291;SDS011;6714;53.056;8.690;2023-03-08T16:36:07;3.27;;;2.77;;
13291;SDS011;6714;53.056;8.690;2023-03-08T16:38:50;2.97;;;2.70;;
13291;SDS011;6714;53.056;8.690;2023-03-08T16:41:32;3.20;;;2.90;;
13291;SDS011;6714;53.056;8.690;2023-03-08T16:44:18;3.30;;;3.00;;
13291;SDS011;6714;53.056;8.690;2023-03-08T16:47:02;3.70;;;2.87;;
13291;SDS011;6714;53.056;8.690;2023-03-08T16:49:45;3.10;;;2.90;;
13291;SDS011;6714;53.056;8.690;2023-03-08T16:52:27;3.50;;;3.20;;
13291;SDS011;6714;53.056;8.690;2023-03-08T16:55:10;3.63;;;3.30;;
13291;SDS011;6714;53.056;8.690;2023-03-08T16:57:52;5.13;;;3.90;;
13291;SDS011;6714;53.056;8.690;2023-03-08T17:00:35;3.70;;;3.40;;
13291;SDS011;6714;53.056;8.690;2023-03-08T17:03:18;4.03;;;3.63;;